Time;durP1;ratioP1;P1;durP2;ratioP2;P2;SDS_P1;SDS_P2;PMS_P1;PMS_P2;Temp;Humidity;BMP_temperature;BMP_pressure;BME280_temperature;BME280_humidity;BME280_pressure;Samples;Min_cycle;Max_cycle;Signal;HPM_P1;HPM_P2
2021/05/17 00:02:18;;;;;;;15.65;7.30;;;;;;;9.88;70.98;99270.39;1719332;83;21627;-67
2021/05/17 00:04:44;;;;;;;15.08;7.90;;;;;;;9.88;71.04;99274.39;1719391;83;20905;-68
2021/05/17 00:07:10;;;;;;;15.90;7.78;;;;;;;9.89;71.14;99272.84;1727473;81;21086;-67
2021/05/17 00:09:37;;;;;;;11.93;7.10;;;;;;;9.92;71.20;99279.65;1746900;82;21027;-68
2021/05/17 00:12:06;;;;;;;12.13;6.72;;;;;;;9.92;71.27;99270.33;1746938;82;21082;-68
2021/05/17 00:14:32;;;;;;;11.50;6.28;;;;;;;9.92;71.34;99275.66;1746370;82;21106;-67
2021/05/17 00:16:58;;;;;;;12.20;6.97;;;;;;;9.94;71.44;99269.11;1746343;82;21014;-67
2021/05/17 00:19:24;;;;;;;9.30;5.33;;;;;;;9.98;71.52;99272.21;1746817;82;21720;-67
2021/05/17 00:21:50;;;;;;;10.28;5.85;;;;;;;10.00;71.59;99267.50;1746907;82;21042;-68
2021/05/17 00:24:18;;;;;;;10.63;5.47;;;;;;;9.99;71.63;99263.21;1747011;82;21770;-68
2021/05/17 00:26:44;;;;;;;11.05;6.90;;;;;;;10.01;71.69;99262.50;1746814;82;21086;-67
2021/05/17 00:29:10;;;;;;;16.55;8.08;;;;;;;10.03;71.77;99259.11;1746547;82;21038;-67
2021/05/17 00:31:40;;;;;;;15.23;7.85;;;;;;;10.04;71.84;99261.59;1746760;82;20880;-67
2021/05/17 00:34:07;;;;;;;10.40;6.65;;;;;;;10.08;71.91;99264.70;1746167;82;21026;-67
2021/05/17 00:36:33;;;;;;;10.78;5.55;;;;;;;10.09;71.97;99270.34;1746929;82;21598;-67
2021/05/17 00:39:00;;;;;;;13.05;6.10;;;;;;;10.10;72.06;99263.98;1746747;82;21026;-67
2021/05/17 00:41:27;;;;;;;11.20;5.85;;;;;;;10.10;72.09;99261.31;1746615;82;21535;-67
2021/05/17 00:43:54;;;;;;;8.88;5.35;;;;;;;10.14;72.19;99263.08;1746902;82;21077;-68
2021/05/17 00:46:20;;;;;;;13.58;5.53;;;;;;;10.16;72.21;99259.26;1746735;82;21049;-67
2021/05/17 00:48:47;;;;;;;11.63;5.78;;;;;;;10.17;72.25;99255.55;1746929;82;20983;-67
2021/05/17 00:51:13;;;;;;;9.18;5.37;;;;;;;10.20;72.30;99257.86;1746343;82;21054;-68
2021/05/17 00:53:40;;;;;;;11.35;6.22;;;;;;;10.22;72.36;99251.81;1746734;82;21038;-67
2021/05/17 00:56:06;;;;;;;10.45;6.15;;;;;;;10.25;72.37;99246.59;1746735;82;21073;-67
2021/05/17 00:58:33;;;;;;;11.73;4.78;;;;;;;10.26;72.42;99250.91;1746918;82;21555;-67
2021/05/17 01:01:00;;;;;;;10.88;5.37;;;;;;;10.28;72.44;99255.02;1746911;82;21228;-67
2021/05/17 01:03:26;;;;;;;7.22;3.77;;;;;;;10.29;72.48;99259.34;1746687;82;21054;-68
2021/05/17 01:05:52;;;;;;;9.33;4.53;;;;;;;10.33;72.50;99259.27;1746890;82;21577;-67
2021/05/17 01:08:24;;;;;;;10.90;5.17;;;;;;;10.38;72.51;99261.31;1745208;82;20851;-68
2021/05/17 01:10:54;;;;;;;15.78;7.65;;;;;;;10.39;72.53;99256.31;1744950;82;21086;-67
2021/05/17 01:13:19;;;;;;;9.78;4.72;;;;;;;10.39;72.52;99247.80;1744769;82;21119;-67
2021/05/17 01:15:47;;;;;;;7.97;4.40;;;;;;;10.39;72.56;99253.14;1671312;85;21018;-67
2021/05/17 01:18:16;;;;;;;6.92;4.05;;;;;;;10.39;72.58;99248.31;1699515;84;21065;-68
2021/05/17 01:20:45;;;;;;;14.10;4.63;;;;;;;10.41;72.59;99251.08;1699611;83;21120;-67
2021/05/17 01:25:49;;;;;;;9.63;3.90;;;;;;;10.44;72.63;99254.72;1699453;83;21166;-68
2021/05/17 01:28:22;;;;;;;8.50;4.10;;;;;;;10.43;72.63;99239.73;1699419;83;21050;-68
2021/05/17 01:30:49;;;;;;;7.00;4.10;;;;;;;10.45;72.65;99247.52;1699426;84;21058;-67
2021/05/17 01:33:15;;;;;;;10.85;4.65;;;;;;;10.45;72.67;99244.85;1699415;83;21704;-68
2021/05/17 01:35:41;;;;;;;11.53;5.20;;;;;;;10.46;72.69;99246.00;1699670;84;20898;-68
2021/05/17 01:38:07;;;;;;;9.45;4.92;;;;;;;10.46;72.69;99242.00;1699623;83;21695;-68
2021/05/17 01:40:35;;;;;;;18.70;9.15;;;;;;;10.45;72.70;99248.34;1699642;84;21045;-67
2021/05/17 01:43:03;;;;;;;11.60;6.47;;;;;;;10.45;72.71;99240.34;1699186;83;21045;-67
2021/05/17 01:45:30;;;;;;;11.05;5.53;;;;;;;10.46;72.73;99242.51;1699519;84;21085;-68
2021/05/17 01:47:57;;;;;;;11.88;5.85;;;;;;;10.45;72.75;99238.19;1699480;84;21542;-68
2021/05/17 01:50:23;;;;;;;8.33;5.10;;;;;;;10.45;72.77;99240.34;1699183;84;21208;-67
2021/05/17 01:52:49;;;;;;;7.42;4.45;;;;;;;10.46;72.80;99231.84;1699619;83;21065;-68
2021/05/17 01:55:17;;;;;;;7.03;3.80;;;;;;;10.50;72.79;99245.09;1699387;84;21025;-67
2021/05/17 01:57:43;;;;;;;6.78;4.05;;;;;;;10.50;72.83;99247.25;1685693;84;21096;-68
2021/05/17 02:00:12;;;;;;;11.40;5.45;;;;;;;10.51;72.83;99240.91;1699306;84;21056;-67
2021/05/17 02:02:38;;;;;;;13.88;6.95;;;;;;;10.49;72.83;99246.94;1699667;84;21589;-67
2021/05/17 02:05:05;;;;;;;13.08;6.90;;;;;;;10.45;72.85;99248.34;1699500;84;21037;-67
2021/05/17 02:07:31;;;;;;;13.50;6.30;;;;;;;10.40;72.84;99248.13;1699305;83;21080;-68
2021/05/17 02:09:57;;;;;;;9.35;4.67;;;;;;;10.38;72.88;99249.32;1699830;84;21093;-67
2021/05/17 02:12:23;;;;;;;8.08;4.42;;;;;;;10.36;72.89;99248.20;1699992;84;21045;-67
2021/05/17 02:14:52;;;;;;;8.48;3.95;;;;;;;10.31;72.90;99249.29;1699998;84;21717;-68
2021/05/17 02:17:22;;;;;;;8.75;3.70;;;;;;;10.31;72.94;99249.29;1699266;84;21584;-68
2021/05/17 02:19:48;;;;;;;17.80;7.15;;;;;;;10.32;72.97;99246.95;1699915;83;20966;-67
2021/05/17 02:22:21;;;;;;;11.40;6.47;;;;;;;10.31;72.99;99241.30;1699498;84;20961;-68
2021/05/17 02:24:47;;;;;;;14.00;6.65;;;;;;;10.26;73.01;99230.42;1699944;84;21061;-68
2021/05/17 02:27:15;;;;;;;12.80;5.65;;;;;;;10.23;73.08;99232.16;1699969;83;21620;-68
2021/05/17 02:29:44;;;;;;;12.03;6.30;;;;;;;10.21;73.12;99233.34;1699570;84;21600;-67
2021/05/17 02:32:19;;;;;;;24.90;8.30;;;;;;;10.16;73.17;99239.28;1699537;83;21081;-68
2021/05/17 02:34:45;;;;;;;11.88;5.25;;;;;;;10.12;73.22;99236.66;1686308;84;21571;-67
2021/05/17 02:37:11;;;;;;;12.50;5.08;;;;;;;10.09;73.30;99241.05;1699893;84;21076;-68
2021/05/17 02:39:37;;;;;;;7.75;3.80;;;;;;;10.04;73.34;99243.46;1699977;84;21561;-68
2021/05/17 02:42:04;;;;;;;11.30;4.85;;;;;;;10.05;73.39;99253.10;1699833;83;21085;-68
2021/05/17 02:44:30;;;;;;;4.78;3.27;;;;;;;10.05;73.42;99253.10;1699757;84;21104;-68
2021/05/17 02:46:57;;;;;;;7.25;4.42;;;;;;;10.07;73.46;99254.22;1699901;84;21108;-68
2021/05/17 02:49:29;;;;;;;9.85;4.15;;;;;;;10.09;73.46;99258.86;1699955;84;21580;-68
2021/05/17 02:51:53;;;;;;;7.12;3.55;;;;;;;10.07;73.49;99249.73;1699666;83;21292;-67
2021/05/17 02:54:31;;;;;;;8.70;3.75;;;;;;;10.08;73.51;99250.05;1699939;84;20981;-68
2021/05/17 02:57:12;;;;;;;8.30;3.77;;;;;;;10.07;73.54;99244.39;1699928;83;20921;-68
2021/05/17 02:59:56;;;;;;;5.30;3.42;;;;;;;10.05;73.57;99242.45;1699995;84;21053;-67
2021/05/17 03:02:22;;;;;;;7.60;2.95;;;;;;;10.06;73.57;99245.44;1685336;84;21643;-67
2021/05/17 03:04:52;;;;;;;5.55;3.22;;;;;;;10.06;73.58;99249.94;1685948;84;21268;-68
2021/05/17 03:07:18;;;;;;;9.95;3.65;;;;;;;10.03;73.59;99248.47;1699734;84;20993;-67
2021/05/17 03:09:45;;;;;;;8.38;3.00;;;;;;;10.01;73.63;99254.00;1699539;83;21092;-68
2021/05/17 03:12:11;;;;;;;7.67;3.47;;;;;;;9.99;73.65;99261.34;1699977;83;21064;-67
2021/05/17 03:14:41;;;;;;;10.25;3.22;;;;;;;10.00;73.67;99261.67;1699924;84;21049;-68
2021/05/17 03:17:09;;;;;;;10.93;3.12;;;;;;;10.02;73.71;99274.80;1700000;84;21635;-67
2021/05/17 03:19:37;;;;;;;5.90;3.12;;;;;;;10.02;73.74;99273.48;1699961;84;21018;-67
2021/05/17 03:22:03;;;;;;;7.60;2.95;;;;;;;10.01;73.76;99277.14;1699670;83;21521;-67
2021/05/17 03:24:35;;;;;;;6.37;3.67;;;;;;;10.01;73.80;99279.30;1699941;84;21104;-67
2021/05/17 03:27:23;;;;;;;5.60;3.25;;;;;;;10.06;73.86;99276.06;1699986;83;21020;-68
2021/05/17 03:29:49;;;;;;;5.42;2.47;;;;;;;10.15;73.87;99276.76;1699677;84;21092;-67
2021/05/17 03:32:16;;;;;;;7.97;3.15;;;;;;;10.21;73.83;99283.46;1699797;84;21096;-67
2021/05/17 03:34:42;;;;;;;6.33;3.08;;;;;;;10.27;73.87;99280.55;1699840;84;21036;-67
2021/05/17 03:37:08;;;;;;;7.28;3.58;;;;;;;10.34;73.83;99286.73;1700044;83;21084;-67
2021/05/17 03:39:34;;;;;;;9.83;4.37;;;;;;;10.31;73.79;99278.60;1699582;84;21059;-67
2021/05/17 03:42:00;;;;;;;11.57;4.70;;;;;;;10.30;73.80;99279.64;1700085;84;21135;-68
2021/05/17 03:44:27;;;;;;;9.45;4.35;;;;;;;10.40;73.87;99282.78;1699757;83;21073;-67
2021/05/17 03:46:53;;;;;;;10.00;3.80;;;;;;;10.45;73.78;99279.50;1699977;84;21040;-68
2021/05/17 03:49:19;;;;;;;8.30;3.62;;;;;;;10.60;73.93;99276.71;1699797;84;20902;-68
2021/05/17 03:51:45;;;;;;;6.00;3.27;;;;;;;11.51;74.16;99273.52;1699570;84;21132;-68
2021/05/17 03:54:11;;;;;;;9.10;5.15;;;;;;;11.75;73.50;99274.83;1699991;84;21035;-68
2021/05/17 03:56:37;;;;;;;13.25;4.37;;;;;;;11.48;73.10;99280.09;1699667;84;20941;-68
2021/05/17 03:59:03;;;;;;;6.58;2.80;;;;;;;11.28;73.04;99280.58;1700043;84;20910;-67
2021/05/17 04:01:29;;;;;;;6.35;2.70;;;;;;;11.12;73.06;99279.59;1699671;83;21505;-68
2021/05/17 04:03:56;;;;;;;8.15;3.22;;;;;;;11.02;73.11;99289.83;1699850;83;21056;-67
2021/05/17 04:06:32;;;;;;;7.15;2.92;;;;;;;11.58;73.32;99286.37;1699752;84;21250;-68
2021/05/17 04:14:19;;;;;;;5.28;3.20;;;;;;;15.47;71.69;99302.03;1699585;84;21053;-68
2021/05/17 04:16:45;;;;;;;4.78;2.35;;;;;;;15.74;70.31;99297.10;1699776;84;21009;-68
2021/05/17 04:19:12;;;;;;;7.97;3.15;;;;;;;16.13;70.00;99298.34;1699929;84;21973;-68
2021/05/17 04:21:39;;;;;;;7.42;3.25;;;;;;;16.67;69.07;99298.55;1699697;84;21605;-68
2021/05/17 04:24:07;;;;;;;10.65;3.70;;;;;;;17.24;68.65;99302.14;1699840;84;21021;-68
2021/05/17 04:26:33;;;;;;;7.83;3.65;;;;;;;17.89;67.48;99300.40;1699874;83;21565;-68
2021/05/17 04:28:59;;;;;;;7.58;3.12;;;;;;;18.43;66.76;99301.02;1699958;84;20989;-68
2021/05/17 04:31:25;;;;;;;6.95;2.80;;;;;;;18.89;65.83;99295.72;1699383;84;21941;-68
2021/05/17 04:33:51;;;;;;;7.05;2.77;;;;;;;19.44;64.83;99291.55;1699695;84;20898;-68
2021/05/17 04:36:17;;;;;;;5.03;2.67;;;;;;;19.83;63.86;99281.91;1700095;84;20985;-68
2021/05/17 04:38:43;;;;;;;4.05;2.47;;;;;;;19.83;62.46;99281.91;1699609;83;21109;-68
2021/05/17 04:41:10;;;;;;;8.03;2.75;;;;;;;19.38;61.67;99291.19;1699734;84;21015;-68
2021/05/17 04:43:36;;;;;;;5.97;3.02;;;;;;;19.13;61.67;99293.60;1699840;83;21076;-68
2021/05/17 04:46:02;;;;;;;4.58;2.60;;;;;;;18.94;61.75;99296.32;1699851;84;20976;-69
2021/05/17 04:48:28;;;;;;;6.50;2.60;;;;;;;19.03;61.83;99288.08;1699644;84;20917;-69
2021/05/17 04:50:54;;;;;;;6.87;3.42;;;;;;;18.92;61.61;99289.84;1699935;84;20961;-69
2021/05/17 04:53:20;;;;;;;6.97;3.40;;;;;;;18.71;61.41;99288.47;1699606;84;20962;-69
2021/05/17 04:55:46;;;;;;;8.08;3.15;;;;;;;18.43;61.36;99287.52;1699741;84;21251;-68
2021/05/17 04:58:12;;;;;;;9.73;3.10;;;;;;;18.43;61.21;99286.17;1699755;84;20930;-69
2021/05/17 05:00:38;;;;;;;4.42;2.40;;;;;;;18.55;60.82;99286.60;1699584;83;20972;-69
2021/05/17 05:03:04;;;;;;;4.58;2.25;;;;;;;18.33;60.42;99285.98;1699629;84;21065;-69
2021/05/17 05:05:30;;;;;;;6.47;2.55;;;;;;;18.17;60.20;99285.48;1699911;84;21036;-69
2021/05/17 05:07:56;;;;;;;3.77;2.12;;;;;;;18.02;60.04;99283.88;1700034;84;21282;-69
2021/05/17 05:10:22;;;;;;;11.60;2.83;;;;;;;18.21;59.84;99275.83;1696295;83;21029;-69
2021/05/17 05:12:48;;;;;;;4.28;1.90;;;;;;;18.32;59.55;99276.28;1695936;83;21017;-69
2021/05/17 05:15:14;;;;;;;6.53;3.12;;;;;;;18.50;59.25;99267.61;1681345;84;20899;-69
2021/05/17 05:17:41;;;;;;;6.58;2.50;;;;;;;18.50;59.07;99267.61;1672608;84;21934;-69
2021/05/17 05:20:08;;;;;;;6.47;2.90;;;;;;;18.52;58.72;99265.50;1688588;84;21635;-69
2021/05/17 05:22:35;;;;;;;9.55;5.20;;;;;;;18.45;58.51;99267.00;1720112;83;21116;-69
2021/05/17 05:25:02;;;;;;;7.22;2.45;;;;;;;18.54;58.28;99266.09;1694698;84;21068;-69
2021/05/17 05:27:52;;;;;;;6.83;2.83;;;;;;;18.45;57.98;99273.22;1702021;83;21037;-68
2021/05/17 05:30:11;;;;;;;9.93;2.87;;;;;;;18.45;57.86;99281.84;1692501;82;21532;-69
2021/05/17 05:34:55;;;;;;;6.05;2.17;;;;;;;18.18;57.25;99294.41;1720227;83;21583;-69
2021/05/17 05:37:21;;;;;;;5.12;2.45;;;;;;;18.14;57.18;99292.73;1694659;84;20882;-69
2021/05/17 05:39:47;;;;;;;4.12;2.20;;;;;;;18.18;57.11;99293.88;1702534;83;21017;-70
2021/05/17 05:42:13;;;;;;;5.05;2.15;;;;;;;18.37;57.02;99283.61;1702474;84;20989;-69
2021/05/17 05:44:47;;;;;;;6.92;2.47;;;;;;;18.63;56.89;99290.23;1702428;84;21003;-69
2021/05/17 05:47:16;;;;;;;3.62;2.02;;;;;;;18.86;56.58;99292.70;1702723;84;21572;-69
2021/05/17 05:49:44;;;;;;;6.47;2.52;;;;;;;18.84;56.46;99289.44;1702821;84;21025;-69
2021/05/17 05:52:11;;;;;;;6.30;1.90;;;;;;;18.60;56.14;99291.55;1702072;84;21117;-69
2021/05/17 05:54:37;;;;;;;24.92;3.45;;;;;;;18.61;56.13;99290.50;1702209;84;20986;-69
2021/05/17 05:57:04;;;;;;;6.17;2.40;;;;;;;18.67;55.94;99298.95;1702532;84;21054;-69
2021/05/17 05:59:30;;;;;;;11.30;3.37;;;;;;;18.73;55.79;99306.58;1702617;84;21079;-69
2021/05/17 06:01:56;;;;;;;7.12;2.98;;;;;;;18.84;55.69;99307.00;1702649;84;21536;-68
2021/05/17 06:04:22;;;;;;;5.80;3.33;;;;;;;18.86;55.41;99306.20;1702618;84;20930;-69
2021/05/17 06:06:48;;;;;;;6.67;2.65;;;;;;;18.57;55.28;99302.04;1702513;84;21202;-68
2021/05/17 06:09:14;;;;;;;8.20;2.40;;;;;;;18.42;55.18;99308.00;1702636;83;21075;-68
2021/05/17 06:11:40;;;;;;;6.65;3.30;;;;;;;18.63;55.15;99307.26;1702373;84;21065;-69
2021/05/17 06:14:08;;;;;;;5.75;2.65;;;;;;;18.56;55.00;99307.15;1702342;84;21085;-69
2021/05/17 06:16:35;;;;;;;4.12;2.40;;;;;;;18.38;54.83;99304.16;1702451;84;21353;-69
2021/05/17 06:19:02;;;;;;;8.40;4.40;;;;;;;18.26;54.73;99309.63;1692428;84;21063;-68
2021/05/17 06:21:28;;;;;;;5.17;2.77;;;;;;;18.18;54.71;99311.42;1700900;84;21460;-69
2021/05/17 06:23:57;;;;;;;8.93;4.00;;;;;;;18.07;54.73;99316.36;1703502;82;21057;-68
2021/05/17 06:26:25;;;;;;;4.75;2.83;;;;;;;18.07;54.73;99315.01;1717920;83;21031;-68
2021/05/17 06:28:51;;;;;;;6.37;2.33;;;;;;;17.87;54.64;99320.86;1720444;82;21062;-68
2021/05/17 06:31:18;;;;;;;9.05;2.70;;;;;;;17.59;54.67;99318.19;1713377;82;21666;-68
2021/05/17 06:33:45;;;;;;;3.45;2.65;;;;;;;17.72;54.81;99315.75;1690062;84;21568;-69
2021/05/17 06:36:12;;;;;;;4.55;2.45;;;;;;;18.11;54.73;99316.16;1684073;84;21078;-68
2021/05/17 06:38:41;;;;;;;7.35;2.70;;;;;;;17.94;54.61;99318.03;1678574;85;20986;-69
2021/05/17 06:41:08;;;;;;;4.30;2.60;;;;;;;17.70;54.68;99314.63;1678362;85;21553;-68
2021/05/17 06:43:38;;;;;;;4.85;2.15;;;;;;;17.47;54.62;99319.58;1688243;84;21057;-69
2021/05/17 06:46:09;;;;;;;6.50;2.92;;;;;;;17.52;54.81;99316.70;1693850;84;21104;-68
2021/05/17 06:48:44;;;;;;;5.70;2.35;;;;;;;17.80;54.70;99318.05;1720187;83;21082;-68
2021/05/17 06:51:17;;;;;;;5.80;2.40;;;;;;;18.00;54.75;99311.66;1694759;84;21025;-68
2021/05/17 06:53:44;;;;;;;5.75;2.70;;;;;;;18.15;54.65;99305.16;1702123;84;21045;-68
2021/05/17 06:56:20;;;;;;;4.40;2.55;;;;;;;18.18;54.67;99309.24;1702713;84;20985;-69
2021/05/17 06:59:00;;;;;;;5.37;1.63;;;;;;;18.38;54.76;99307.67;1700552;84;21116;-69
2021/05/17 07:01:07;;;;;;;7.28;2.15;;;;;;;18.68;54.68;99303.82;1696392;84;21084;-70
2021/05/17 07:03:34;;;;;;;4.75;2.65;;;;;;;18.84;54.45;99297.55;1702593;83;21005;-68
2021/05/17 07:06:00;;;;;;;5.62;2.00;;;;;;;18.82;54.22;99299.69;1700935;84;21024;-69
2021/05/17 07:13:55;;;;;;;4.00;2.52;;;;;;;18.57;53.68;99299.34;1706315;84;21167;-69
2021/05/17 07:16:21;;;;;;;3.35;1.42;;;;;;;18.47;53.70;99299.42;1706337;84;21581;-69
2021/05/17 07:18:47;;;;;;;175.97;42.05;;;;;;;18.50;53.62;99302.19;1706252;84;20913;-69
2021/05/17 07:23:41;;;;;;;157.93;42.40;;;;;;;18.45;53.44;99299.40;1706368;84;21031;-69
2021/05/17 07:26:11;;;;;;;5.42;2.30;;;;;;;18.46;53.50;99307.27;1706457;84;21096;-69
2021/05/17 07:28:38;;;;;;;3.47;2.00;;;;;;;18.77;53.61;99311.77;1723025;82;21558;-69
2021/05/17 07:31:06;;;;;;;5.70;2.90;;;;;;;19.02;53.48;99311.28;1736730;82;21016;-69
2021/05/17 07:33:32;;;;;;;4.90;2.05;;;;;;;19.20;53.33;99305.03;1676475;85;21021;-69
2021/05/17 07:35:59;;;;;;;7.72;2.30;;;;;;;19.24;53.21;99304.00;1690117;84;21071;-69
2021/05/17 07:38:32;;;;;;;2.27;1.30;;;;;;;19.38;53.11;99306.59;1733568;82;21052;-69
2021/05/17 07:41:01;;;;;;;4.28;1.92;;;;;;;19.46;53.05;99310.77;1719579;82;21070;-69
2021/05/17 07:43:27;;;;;;;4.15;2.75;;;;;;;19.60;52.88;99316.05;1732933;82;21068;-69
2021/05/17 07:45:53;;;;;;;4.97;2.00;;;;;;;19.30;52.70;99320.02;1733748;82;21040;-69
2021/05/17 07:48:20;;;;;;;3.67;2.10;;;;;;;19.07;52.73;99326.22;1736635;82;21092;-69
2021/05/17 07:50:46;;;;;;;4.20;1.77;;;;;;;19.03;52.69;99321.86;1727966;82;21171;-69
2021/05/17 07:53:13;;;;;;;4.45;1.65;;;;;;;18.96;52.57;99311.77;1732130;82;22357;-69
2021/05/17 07:55:40;;;;;;;6.80;1.98;;;;;;;18.98;52.55;99316.38;1736114;82;21070;-69
2021/05/17 07:58:06;;;;;;;6.92;2.15;;;;;;;19.13;52.48;99324.69;1717638;82;21035;-69
2021/05/17 08:00:32;;;;;;;4.17;1.60;;;;;;;19.31;52.37;99329.77;1706978;83;21654;-70
2021/05/17 08:02:58;;;;;;;4.50;1.70;;;;;;;19.37;52.24;99339.57;1720424;82;21040;-69
2021/05/17 08:05:24;;;;;;;4.05;1.20;;;;;;;19.33;52.18;99339.78;1736606;82;21532;-69
2021/05/17 08:07:50;;;;;;;7.25;2.35;;;;;;;19.51;52.17;99337.84;1734874;82;20963;-69
2021/05/17 08:10:17;;;;;;;4.15;1.87;;;;;;;19.80;52.09;99335.19;1733434;81;21027;-69
2021/05/17 08:12:43;;;;;;;4.08;1.10;;;;;;;19.88;51.79;99337.41;1714295;83;21589;-69
2021/05/17 08:15:09;;;;;;;4.60;1.65;;;;;;;20.15;51.70;99331.45;1669113;86;21145;-69
2021/05/17 08:17:35;;;;;;;3.22;1.55;;;;;;;20.31;51.51;99337.83;1639701;86;21053;-70
2021/05/17 08:20:03;;;;;;;5.62;1.42;;;;;;;20.47;51.33;99333.35;1673617;85;21604;-69
2021/05/17 08:22:29;;;;;;;2.25;1.17;;;;;;;20.62;51.14;99330.75;1693322;84;21609;-70
2021/05/17 08:24:56;;;;;;;4.97;1.75;;;;;;;20.72;50.85;99326.75;1694931;84;21201;-70
2021/05/17 08:27:23;;;;;;;8.08;3.27;;;;;;;20.81;50.51;99331.41;1695708;84;21014;-70
2021/05/17 08:29:49;;;;;;;6.83;2.00;;;;;;;21.04;50.31;99328.80;1695605;83;21523;-69
2021/05/17 08:32:15;;;;;;;3.27;1.40;;;;;;;21.11;49.76;99323.98;1695094;84;20981;-70
2021/05/17 08:34:41;;;;;;;1.70;1.00;;;;;;;21.09;49.29;99321.23;1675127;85;21001;-70
2021/05/17 08:37:07;;;;;;;3.15;0.82;;;;;;;21.07;48.91;99329.66;1675013;85;21279;-70
2021/05/17 08:39:33;;;;;;;3.27;1.85;;;;;;;20.68;48.68;99322.92;1678211;85;21088;-70
2021/05/17 08:42:00;;;;;;;1.85;0.88;;;;;;;20.52;48.27;99330.13;1677818;85;21056;-69
2021/05/17 08:44:26;;;;;;;3.05;1.17;;;;;;;20.67;48.12;99321.28;1657957;85;21160;-69
2021/05/17 08:46:52;;;;;;;2.50;1.30;;;;;;;20.82;47.85;99323.56;1669008;85;21044;-69
2021/05/17 08:49:18;;;;;;;1.65;0.90;;;;;;;20.97;47.47;99325.51;1650330;85;21294;-69
2021/05/17 08:51:45;;;;;;;2.15;0.82;;;;;;;21.18;47.29;99317.77;1677888;84;21108;-69
2021/05/17 08:54:11;;;;;;;7.87;4.55;;;;;;;21.34;47.23;99320.83;1677880;85;21053;-69
2021/05/17 08:56:44;;;;;;;4.90;1.52;;;;;;;21.39;46.91;99324.11;1677709;85;21634;-70
2021/05/17 08:59:14;;;;;;;2.90;1.77;;;;;;;20.80;46.71;99326.23;1678035;85;21061;-70
2021/05/17 09:01:40;;;;;;;24.00;5.60;;;;;;;20.05;46.75;99327.31;1678263;85;21045;-70
2021/05/17 09:04:09;;;;;;;10.75;3.15;;;;;;;19.95;47.03;99322.61;1678073;85;21531;-70
2021/05/17 09:06:41;;;;;;;19.52;10.60;;;;;;;20.08;47.18;99322.73;1678258;85;21123;-70
2021/05/17 09:09:35;;;;;;;8.03;2.80;;;;;;;20.20;47.09;99322.00;1678372;85;21052;-70
2021/05/17 09:12:04;;;;;;;11.63;3.75;;;;;;;19.87;47.08;99331.74;1700900;84;21064;-70
2021/05/17 09:14:32;;;;;;;26.07;5.83;;;;;;;19.65;47.27;99333.67;1702556;84;21357;-69
2021/05/17 09:17:00;;;;;;;7.87;2.27;;;;;;;19.60;47.38;99339.05;1701139;84;21090;-69
2021/05/17 09:19:27;;;;;;;11.18;2.60;;;;;;;19.42;47.42;99329.39;1702363;84;21064;-70
2021/05/17 09:22:15;;;;;;;5.28;1.60;;;;;;;19.27;47.57;99325.94;1702635;84;21087;-69
2021/05/17 09:24:49;;;;;;;8.68;2.60;;;;;;;18.89;47.64;99311.13;1702376;84;21080;-69
2021/05/17 09:27:27;;;;;;;19.62;5.65;;;;;;;18.32;47.94;99328.92;1702583;84;21106;-69
2021/05/17 09:30:01;;;;;;;8.15;2.87;;;;;;;18.13;48.34;99335.61;1702483;84;21144;-69
2021/05/17 09:32:37;;;;;;;9.78;2.30;;;;;;;18.08;48.56;99340.94;1691683;84;21049;-69
2021/05/17 09:35:17;;;;;;;12.85;3.12;;;;;;;17.91;48.84;99336.03;1700398;84;21039;-69
2021/05/17 09:37:50;;;;;;;9.05;2.95;;;;;;;17.84;49.16;99346.16;1701065;84;21054;-69
2021/05/17 09:40:25;;;;;;;7.45;2.40;;;;;;;17.90;49.45;99338.46;1702407;84;21687;-69
2021/05/17 09:43:11;;;;;;;14.53;2.08;;;;;;;18.31;49.63;99339.42;1702138;84;21565;-69
2021/05/17 09:45:39;;;;;;;2.72;1.32;;;;;;;18.74;49.64;99340.63;1702780;84;21060;-69
2021/05/17 09:48:11;;;;;;;3.65;1.25;;;;;;;19.09;49.47;99343.81;1702522;84;21094;-69
2021/05/17 09:51:00;;;;;;;10.82;5.42;;;;;;;19.39;49.34;99338.77;1701461;84;21126;-69
2021/05/17 09:53:44;;;;;;;;;;;;;;;19.60;49.15;99348.52;1704030;84;21238;-69
2021/05/17 09:56:16;;;;;;;3.33;1.40;;;;;;;19.70;49.03;99345.91;1701090;84;20244;-69
2021/05/17 09:58:49;;;;;;;2.25;1.02;;;;;;;19.77;49.07;99342.47;1701817;82;21087;-69
2021/05/17 10:01:28;;;;;;;4.85;1.37;;;;;;;19.74;48.80;99345.66;1697444;84;21065;-69
2021/05/17 10:04:05;;;;;;;6.33;1.30;;;;;;;19.81;48.70;99349.80;1701184;84;21040;-69
2021/05/17 10:06:32;;;;;;;9.20;3.02;;;;;;;19.85;48.48;99340.63;1700659;82;21386;-69
2021/05/17 10:08:58;;;;;;;4.95;1.40;;;;;;;19.70;48.30;99331.83;1702144;84;21093;-69
2021/05/17 10:11:26;;;;;;;6.65;2.52;;;;;;;19.51;48.08;99332.44;1702148;84;21064;-70
2021/05/17 10:13:52;;;;;;;10.88;3.77;;;;;;;19.29;48.03;99340.00;1700828;84;21680;-69
2021/05/17 10:16:19;;;;;;;5.00;1.82;;;;;;;19.22;48.08;99338.03;1696848;82;21095;-70
2021/05/17 10:18:46;;;;;;;5.65;2.12;;;;;;;19.20;47.99;99344.77;1702663;84;21711;-69
2021/05/17 10:21:15;;;;;;;3.27;1.30;;;;;;;19.10;47.80;99350.86;1685515;82;21545;-69
2021/05/17 10:23:42;;;;;;;5.42;1.70;;;;;;;19.03;47.68;99348.88;1690200;82;21086;-70
2021/05/17 10:26:17;;;;;;;3.67;1.65;;;;;;;18.97;47.58;99348.51;1702977;83;21576;-69
2021/05/17 10:28:50;;;;;;;4.37;1.60;;;;;;;18.86;47.48;99344.03;1701698;84;21064;-69
2021/05/17 10:31:18;;;;;;;5.55;2.17;;;;;;;18.59;47.51;99341.75;1701866;84;21569;-69
2021/05/17 10:34:02;;;;;;;8.38;2.10;;;;;;;18.42;47.77;99354.72;1702226;84;21569;-69
2021/05/17 10:36:58;;;;;;;7.75;1.90;;;;;;;18.29;48.05;99347.48;1702610;84;21068;-69
2021/05/17 10:39:36;;;;;;;3.72;2.08;;;;;;;18.16;48.34;99347.78;1719149;83;21065;-69
2021/05/17 10:48:13;;;;;;;5.53;1.80;;;;;;;17.67;48.98;99343.95;1666533;86;21053;-69
2021/05/17 10:50:45;;;;;;;9.25;3.05;;;;;;;17.59;49.25;99340.32;1663702;86;21116;-68
2021/05/17 10:53:45;;;;;;;8.25;2.40;;;;;;;17.55;49.57;99340.48;1665692;86;21040;-69
2021/05/17 10:56:18;;;;;;;8.38;2.10;;;;;;;17.54;49.91;99352.31;1665842;86;21076;-69
2021/05/17 11:01:54;;;;;;;5.80;2.42;;;;;;;17.63;50.52;99351.70;1666596;86;21048;-68
2021/05/17 11:04:34;;;;;;;10.58;2.33;;;;;;;17.83;50.73;99351.28;1684766;83;21624;-68
2021/05/17 11:07:14;;;;;;;;;;;;;;;17.97;50.83;99344.52;1696696;84;21017;-68
2021/05/17 11:09:53;;;;;;;6.85;1.50;;;;;;;18.00;50.78;99345.37;1720172;83;20856;-68
2021/05/17 11:12:27;;;;;;;2.80;0.90;;;;;;;18.11;50.68;99343.14;1693615;84;21223;-68
2021/05/17 11:15:09;;;;;;;5.50;1.50;;;;;;;18.25;50.57;99339.59;1681364;84;21629;-68
2021/05/17 11:17:58;;;;;;;3.67;1.05;;;;;;;18.40;50.35;99337.92;1702138;84;21863;-69
2021/05/17 11:20:44;;;;;;;2.42;0.93;;;;;;;18.48;50.13;99334.83;1674283;85;21041;-68
2021/05/17 11:23:17;;;;;;;10.08;3.55;;;;;;;18.61;50.01;99331.54;1674287;85;21061;-68
2021/05/17 11:26:09;;;;;;;2.20;1.00;;;;;;;18.67;49.86;99342.16;1674282;85;21194;-68
2021/05/17 11:28:41;;;;;;;1.92;0.90;;;;;;;18.68;49.69;99345.69;1674065;84;21543;-68
2021/05/17 11:31:29;;;;;;;4.33;1.30;;;;;;;18.78;49.59;99341.77;1685706;84;21041;-69
2021/05/17 11:34:06;;;;;;;4.30;1.92;;;;;;;18.88;49.54;99341.91;1691355;84;21598;-68
2021/05/17 11:36:45;;;;;;;3.58;1.17;;;;;;;18.90;49.40;99347.88;1701764;84;21964;-70
2021/05/17 11:39:27;;;;;;;5.87;2.07;;;;;;;18.84;49.27;99349.70;1692693;84;21596;-68
2021/05/17 11:42:05;;;;;;;12.15;3.35;;;;;;;18.77;49.16;99353.64;1685755;84;21393;-68
2021/05/17 11:47:23;;;;;;;3.33;1.37;;;;;;;18.64;48.93;99366.15;1705789;82;21130;-68
2021/05/17 11:49:51;;;;;;;4.30;1.57;;;;;;;18.57;48.90;99361.45;1693925;82;21070;-68
2021/05/17 11:52:25;;;;;;;2.95;1.20;;;;;;;18.55;48.93;99368.96;1703173;82;21112;-68
2021/05/17 11:54:54;;;;;;;5.33;2.50;;;;;;;18.61;48.96;99370.70;1697016;82;21072;-68
2021/05/17 11:57:31;;;;;;;4.37;1.25;;;;;;;18.61;48.91;99370.70;1696007;82;21588;-68
2021/05/17 12:00:12;;;;;;;5.95;1.75;;;;;;;18.61;48.89;99373.40;1704414;82;21108;-68
2021/05/17 12:02:47;;;;;;;2.40;1.15;;;;;;;18.58;48.84;99371.20;1684245;84;21036;-69
2021/05/17 12:05:13;;;;;;;10.72;2.37;;;;;;;18.59;48.84;99375.52;1706236;82;21071;-69
2021/05/17 12:07:44;;;;;;;7.50;1.65;;;;;;;18.61;48.88;99388.25;1716900;82;21571;-69
2021/05/17 12:10:12;;;;;;;2.65;1.50;;;;;;;18.63;48.92;99382.06;1710832;82;21545;-69
2021/05/17 12:12:39;;;;;;;2.90;0.90;;;;;;;18.62;48.94;99385.81;1709184;82;21138;-69